Terminal Aerodrome Forecast
Issued by NWS

Home | Current Version | Previous Version | Text Only | Print | Product List | Glossary On
Versions: 1 2 3 4 5 6 7 8 9 10 11 12 13 14 15 16 17 18
000
FTUS41 KBGM 231700 AAA
TAFELM
TAF AMD
KELM 231745Z 2318/2418 24008KT P6SM BKN050
      TEMPO 2319/2322 4SM TSRA OVC035CB
     FM240000 31008KT P6SM OVC030
     FM240500 31004KT P6SM OVC040
     FM241500 35012KT P6SM BKN040=

USA.gov is the U.S. government's official web portal to all federal, state and local government web resources and services.